Corky — WDC3366 — position and weather

sailwx.info

Track history (hours):
 
Tides and Currents Weather Stations Pressure Air Temp Water Temp Dewpoint Dewpoint Depression Visibility Wind Speed Wind Dir Waves Ship Positions

Corky

Owner: Gulf South Marine Transportation, Inc., New Orleans, LA. More information available from US FCC via Universal Licensing System and Coast Guard Vessel Documentation Center.

Last reported at 2015-Jul-29 17:31 UTC. Time now 2015-Jul-29 17:56 UTC.
Position N 29°57' W 090°02'.

Length 18 m; draft 3.3 m.

Type: Tow > 200 m length. MMSI: 367006780.

Date/timePositionNaut miles runAvg speedWind from/ knotsBaromVisibWave heightAir tempDewpointWater temp
2015-Jul-29 17:31N 29°57' W 090°02'0 0.0
2015-Jul-29 16:33N 29°57' W 090°02'0 0.0
2015-Jul-29 15:33N 29°57' W 090°02'1 0.5
2015-Jul-29 14:27N 29°57' W 090°01'1 0.6
2015-Jul-29 13:32N 29°57' W 090°02'0 0.0
2015-Jul-29 12:26N 29°57' W 090°02'0 0.0
2015-Jul-29 11:21N 29°57' W 090°02'0 0.0
2015-Jul-28 15:31N 29°57' W 090°02'0 0.0
2015-Jul-28 14:31N 29°57' W 090°02'0 0.0
2015-Jul-28 13:33N 29°57' W 090°02'0 0.0
2015-Jul-28 12:24N 29°57' W 090°02'0 0.0
2015-Jul-28 11:27N 29°57' W 090°02'0 0.0
2015-Jul-28 10:28N 29°57' W 090°02'0 0.0
2015-Jul-28 09:31N 29°57' W 090°02'2 1.5
2015-Jul-28 08:31N 29°56' W 090°03'16 0.3
2015-Jul-26 05:25N 29°57' W 090°22'  
2015-Jul-23 07:33N 29°60' W 089°59'2 1.7
2015-Jul-23 06:31N 29°60' W 090°01'2 2.2
2015-Jul-23 05:32N 29°58' W 090°02'0 0.5
2015-Jul-23 04:31N 29°57' W 090°01'0 0.5
2015-Jul-23 03:33N 29°57' W 090°02'0 0.0
2015-Jul-23 02:33N 29°57' W 090°02'0 0.0
2015-Jul-23 01:30N 29°57' W 090°02'0 0.0
2015-Jul-23 00:31N 29°57' W 090°02'0 0.0
2015-Jul-22 23:33N 29°57' W 090°02'0 0.0
2015-Jul-22 22:30N 29°57' W 090°02'0 0.0
2015-Jul-22 21:25N 29°57' W 090°02'0 0.0
2015-Jul-22 02:30N 29°57' W 090°02'0 0.0
2015-Jul-22 01:33N 29°57' W 090°02'0 0.0
2015-Jul-22 00:28N 29°57' W 090°02'0 0.0
2015-Jul-21 23:32N 29°57' W 090°02'0 0.0
2015-Jul-21 22:31N 29°57' W 090°02'0 0.0
2015-Jul-21 21:31N 29°57' W 090°02'0 0.0
2015-Jul-21 20:32N 29°57' W 090°02'0 0.0
2015-Jul-21 19:31N 29°57' W 090°02'0 0.0
2015-Jul-21 18:32N 29°57' W 090°02'0 0.0
2015-Jul-21 17:33N 29°57' W 090°02'0 0.0
2015-Jul-21 16:29N 29°57' W 090°02'0 0.0
2015-Jul-21 15:32N 29°57' W 090°02'0 0.0
2015-Jul-21 14:32N 29°57' W 090°02'1 1.5
2015-Jul-21 13:33N 29°56' W 090°03'3 0.1
2015-Jul-20 17:33N 29°59' W 090°01'0 0.0
2015-Jul-20 16:26N 29°59' W 090°01'0 0.1
2015-Jul-20 15:28N 29°59' W 090°01'1 0.7
2015-Jul-20 14:33N 29°59' W 090°01'  
Track history (hours):
 
Tides and Currents Weather Stations Pressure Air Temp Water Temp Dewpoint Dewpoint Depression Visibility Wind Speed Wind Dir Waves Ship Positions

Corky

Owner: Gulf South Marine Transportation, Inc., New Orleans, LA. More information available from US FCC via Universal Licensing System and Coast Guard Vessel Documentation Center.

Last reported at 2015-Jul-29 17:31 UTC. Time now 2015-Jul-29 17:56 UTC.
Position N 29°57' W 090°02'.

Length 18 m; draft 3.3 m.

Type: Tow > 200 m length. MMSI: 367006780.

Date/timePositionNaut miles runAvg speedWind from/ knotsBaromVisibWave heightAir tempDewpointWater temp
2015-Jul-29 17:31N 29°57' W 090°02'0 0.0
2015-Jul-29 16:33N 29°57' W 090°02'0 0.0
2015-Jul-29 15:33N 29°57' W 090°02'1 0.5
2015-Jul-29 14:27N 29°57' W 090°01'1 0.6
2015-Jul-29 13:32N 29°57' W 090°02'0 0.0
2015-Jul-29 12:26N 29°57' W 090°02'0 0.0
2015-Jul-29 11:21N 29°57' W 090°02'0 0.0
2015-Jul-28 15:31N 29°57' W 090°02'0 0.0
2015-Jul-28 14:31N 29°57' W 090°02'0 0.0
2015-Jul-28 13:33N 29°57' W 090°02'0 0.0
2015-Jul-28 12:24N 29°57' W 090°02'0 0.0
2015-Jul-28 11:27N 29°57' W 090°02'0 0.0
2015-Jul-28 10:28N 29°57' W 090°02'0 0.0
2015-Jul-28 09:31N 29°57' W 090°02'2 1.5
2015-Jul-28 08:31N 29°56' W 090°03'16 0.3
2015-Jul-26 05:25N 29°57' W 090°22'  
2015-Jul-23 07:33N 29°60' W 089°59'2 1.7
2015-Jul-23 06:31N 29°60' W 090°01'2 2.2
2015-Jul-23 05:32N 29°58' W 090°02'0 0.5
2015-Jul-23 04:31N 29°57' W 090°01'0 0.5
2015-Jul-23 03:33N 29°57' W 090°02'0 0.0
2015-Jul-23 02:33N 29°57' W 090°02'0 0.0
2015-Jul-23 01:30N 29°57' W 090°02'0 0.0
2015-Jul-23 00:31N 29°57' W 090°02'0 0.0
2015-Jul-22 23:33N 29°57' W 090°02'0 0.0
2015-Jul-22 22:30N 29°57' W 090°02'0 0.0
2015-Jul-22 21:25N 29°57' W 090°02'0 0.0
2015-Jul-22 02:30N 29°57' W 090°02'0 0.0
2015-Jul-22 01:33N 29°57' W 090°02'0 0.0
2015-Jul-22 00:28N 29°57' W 090°02'0 0.0
2015-Jul-21 23:32N 29°57' W 090°02'0 0.0
2015-Jul-21 22:31N 29°57' W 090°02'0 0.0
2015-Jul-21 21:31N 29°57' W 090°02'0 0.0
2015-Jul-21 20:32N 29°57' W 090°02'0 0.0
2015-Jul-21 19:31N 29°57' W 090°02'0 0.0
2015-Jul-21 18:32N 29°57' W 090°02'0 0.0
2015-Jul-21 17:33N 29°57' W 090°02'0 0.0
2015-Jul-21 16:29N 29°57' W 090°02'0 0.0
2015-Jul-21 15:32N 29°57' W 090°02'0 0.0
2015-Jul-21 14:32N 29°57' W 090°02'1 1.5
2015-Jul-21 13:33N 29°56' W 090°03'3 0.1
2015-Jul-20 17:33N 29°59' W 090°01'0 0.0
2015-Jul-20 16:26N 29°59' W 090°01'0 0.1
2015-Jul-20 15:28N 29°59' W 090°01'1 0.7
2015-Jul-20 14:33N 29°59' W 090°01'  

Dump ship's entire track history